createdAt,value
2022-08-26T00:02:13.783Z,93.80
2022-08-26T00:04:43.509Z,93.80
2022-08-26T00:07:11.584Z,93.80
2022-08-26T00:09:40.528Z,93.70
2022-08-26T00:12:12.279Z,93.60
2022-08-26T00:14:42.145Z,93.70
2022-08-26T00:17:12.021Z,93.90
2022-08-26T00:19:40.191Z,94.80
2022-08-26T00:22:08.607Z,96.00
2022-08-26T00:24:36.817Z,97.00
2022-08-26T00:27:06.332Z,97.90
2022-08-26T00:29:37.659Z,97.60
2022-08-26T00:32:06.709Z,97.50
2022-08-26T00:34:36.392Z,97.90
2022-08-26T00:37:09.830Z,97.40
2022-08-26T00:39:41.087Z,97.10
2022-08-26T00:42:09.104Z,96.80
2022-08-26T00:44:37.205Z,96.60
2022-08-26T00:47:08.968Z,96.60
2022-08-26T00:49:42.260Z,97.30
2022-08-26T00:52:14.680Z,98.60
2022-08-26T00:54:47.211Z,98.90
2022-08-26T00:57:19.723Z,98.70
2022-08-26T00:59:52.363Z,98.20
2022-08-26T01:02:21.076Z,97.60
2022-08-26T01:04:55.867Z,97.30
2022-08-26T01:07:27.568Z,97.00
2022-08-26T01:09:59.718Z,96.70
2022-08-26T01:12:30.442Z,96.50
2022-08-26T01:14:58.567Z,96.50
2022-08-26T01:17:26.874Z,96.30
2022-08-26T01:20:03.689Z,96.30
2022-08-26T01:22:34.283Z,96.70
2022-08-26T01:25:05.616Z,97.30
2022-08-26T01:27:35.413Z,97.10
2022-08-26T01:30:06.428Z,97.40
2022-08-26T01:32:36.342Z,97.00
2022-08-26T01:35:08.795Z,97.60
2022-08-26T01:37:40.383Z,97.40
2022-08-26T01:40:16.932Z,97.50
2022-08-26T01:42:46.852Z,97.10
2022-08-26T01:45:19.674Z,96.80
2022-08-26T01:47:50.087Z,96.80
2022-08-26T01:50:30.250Z,97.40
2022-08-26T01:53:04.745Z,97.40
2022-08-26T01:55:35.523Z,97.90
2022-08-26T01:58:13.946Z,98.40
2022-08-26T02:00:44.076Z,98.60
2022-08-26T02:03:18.573Z,98.70
2022-08-26T02:05:51.267Z,98.10
2022-08-26T02:08:25.338Z,98.00
2022-08-26T02:10:55.974Z,97.80
2022-08-26T02:13:27.546Z,98.00
2022-08-26T02:15:58.546Z,98.90
2022-08-26T02:18:27.460Z,98.80
2022-08-26T02:20:57.384Z,98.60
2022-08-26T02:23:25.766Z,98.10
2022-08-26T02:26:01.721Z,97.90
2022-08-26T02:28:36.819Z,97.60
2022-08-26T02:31:05.094Z,97.60
2022-08-26T02:33:33.289Z,98.00
2022-08-26T02:36:04.246Z,98.20
2022-08-26T02:38:32.666Z,98.00
2022-08-26T02:41:03.302Z,97.70
2022-08-26T02:43:32.948Z,97.60
2022-08-26T02:46:02.301Z,98.00
2022-08-26T02:48:32.017Z,98.40
2022-08-26T02:51:01.727Z,99.80
2022-08-26T02:53:32.093Z,99.90
2022-08-26T02:56:05.488Z,99.90
2022-08-26T02:58:33.619Z,99.90
2022-08-26T03:01:02.399Z,99.90
2022-08-26T03:03:33.754Z,99.90
2022-08-26T03:06:02.105Z,99.90
2022-08-26T03:08:30.135Z,99.90
2022-08-26T03:10:59.254Z,99.90
2022-08-26T03:13:31.727Z,99.90
2022-08-26T03:16:02.645Z,99.90
2022-08-26T03:18:30.697Z,99.90
2022-08-26T03:20:59.075Z,99.90
2022-08-26T03:23:27.203Z,99.90
2022-08-26T03:25:56.818Z,99.90
2022-08-26T03:28:27.168Z,99.90
2022-08-26T03:30:58.064Z,99.90
2022-08-26T03:33:27.483Z,99.90
2022-08-26T03:35:56.749Z,99.90
2022-08-26T03:38:26.183Z,99.90
2022-08-26T03:40:56.321Z,99.90
2022-08-26T03:43:26.826Z,99.90
2022-08-26T03:45:56.380Z,99.90
2022-08-26T03:48:25.542Z,99.90
2022-08-26T03:50:53.687Z,99.90
2022-08-26T03:53:21.754Z,99.90
2022-08-26T03:55:52.012Z,99.90
2022-08-26T03:58:20.933Z,99.90
2022-08-26T04:00:49.505Z,99.90
2022-08-26T04:03:38.938Z,99.90
2022-08-26T04:06:08.126Z,99.90
2022-08-26T04:08:37.670Z,99.90
2022-08-26T04:11:07.162Z,99.90
2022-08-26T04:13:35.317Z,99.90
2022-08-26T04:16:03.566Z,99.90
2022-08-26T04:18:37.067Z,99.90
2022-08-26T04:21:07.851Z,99.90
2022-08-26T04:23:47.242Z,99.90
2022-08-26T04:26:18.511Z,99.90
2022-08-26T04:28:47.309Z,99.90
2022-08-26T04:31:16.927Z,99.90
2022-08-26T04:33:49.690Z,99.90
2022-08-26T04:36:20.181Z,99.90
2022-08-26T04:38:50.735Z,99.90
2022-08-26T04:41:20.555Z,99.90
2022-08-26T04:43:48.941Z,99.90
2022-08-26T04:46:22.016Z,99.90
2022-08-26T04:48:52.378Z,99.90
2022-08-26T04:51:28.025Z,99.90
2022-08-26T04:53:57.199Z,99.90
2022-08-26T04:56:26.327Z,99.90
2022-08-26T04:58:54.442Z,99.90
2022-08-26T05:01:23.904Z,99.90
2022-08-26T05:03:54.842Z,99.90
2022-08-26T05:06:23.014Z,99.90
2022-08-26T05:08:51.630Z,99.90
2022-08-26T05:11:22.056Z,99.90
2022-08-26T05:13:50.966Z,99.90
2022-08-26T05:16:19.467Z,99.90
2022-08-26T05:18:48.465Z,99.90
2022-08-26T05:21:23.430Z,99.90
2022-08-26T05:23:52.418Z,99.90
2022-08-26T05:26:22.883Z,99.90
2022-08-26T05:28:51.615Z,99.90
2022-08-26T05:31:26.321Z,99.90
2022-08-26T05:33:54.937Z,99.90
2022-08-26T05:36:26.923Z,99.90
2022-08-26T05:38:55.540Z,99.90
2022-08-26T05:41:34.425Z,99.90
2022-08-26T05:44:07.400Z,99.90
2022-08-26T05:46:36.676Z,99.90
2022-08-26T05:49:05.858Z,99.90
2022-08-26T05:51:36.217Z,99.90
2022-08-26T05:54:06.654Z,99.90
2022-08-26T05:56:34.766Z,99.90
2022-08-26T05:59:03.122Z,99.90
2022-08-26T06:01:35.455Z,99.90
2022-08-26T06:04:04.754Z,99.90
2022-08-26T06:06:36.780Z,99.90
2022-08-26T06:09:10.933Z,99.90
2022-08-26T06:11:40.250Z,99.90
2022-08-26T06:14:09.491Z,99.90
2022-08-26T06:16:40.934Z,99.90
2022-08-26T06:19:11.698Z,99.90
2022-08-26T06:21:42.835Z,99.90
2022-08-26T06:24:31.731Z,99.90
2022-08-26T06:27:02.224Z,99.90
2022-08-26T06:29:33.578Z,99.90
2022-08-26T06:32:02.731Z,99.90
2022-08-26T06:34:31.111Z,99.90
2022-08-26T06:37:03.486Z,99.90
2022-08-26T06:39:32.307Z,99.90
2022-08-26T06:42:01.187Z,99.90
2022-08-26T06:44:32.423Z,99.90
2022-08-26T06:47:00.520Z,99.90
2022-08-26T06:49:28.696Z,99.90
2022-08-26T06:51:58.945Z,99.90
2022-08-26T06:54:31.697Z,99.90
2022-08-26T06:57:00.577Z,99.90
2022-08-26T06:59:28.708Z,99.90
2022-08-26T07:01:57.679Z,99.90
2022-08-26T07:04:27.928Z,99.90
2022-08-26T07:06:56.684Z,99.90
2022-08-26T07:09:30.427Z,99.90
2022-08-26T07:11:58.822Z,99.90
2022-08-26T07:14:27.583Z,99.90
2022-08-26T07:16:56.465Z,99.90
2022-08-26T07:19:31.091Z,99.90
2022-08-26T07:22:02.054Z,99.90
2022-08-26T07:24:32.344Z,99.90
2022-08-26T07:27:02.683Z,99.90
2022-08-26T07:29:31.180Z,99.80
2022-08-26T07:31:59.713Z,99.60
2022-08-26T07:34:28.085Z,99.30
2022-08-26T07:36:56.905Z,99.10
2022-08-26T07:39:26.669Z,98.70
2022-08-26T07:41:56.571Z,98.50
2022-08-26T07:44:27.233Z,98.40
2022-08-26T07:46:55.511Z,97.70
2022-08-26T07:49:26.872Z,97.60
2022-08-26T07:51:57.186Z,97.40
2022-08-26T07:54:27.130Z,97.20
2022-08-26T07:56:57.587Z,97.00
2022-08-26T07:59:26.367Z,96.90
2022-08-26T08:01:54.562Z,96.50
2022-08-26T08:04:26.547Z,96.20
2022-08-26T08:06:55.781Z,96.00
2022-08-26T08:09:24.913Z,95.70
2022-08-26T08:11:53.958Z,95.50
2022-08-26T08:14:23.724Z,95.30
2022-08-26T08:16:54.740Z,95.20
2022-08-26T08:19:23.836Z,94.60
2022-08-26T08:21:53.671Z,94.60
2022-08-26T08:24:23.050Z,94.40
2022-08-26T08:26:51.640Z,93.80
2022-08-26T08:29:19.797Z,93.80
2022-08-26T08:31:58.357Z,93.60
2022-08-26T08:34:28.634Z,93.40
2022-08-26T08:36:57.573Z,93.40
2022-08-26T08:39:26.307Z,93.00
2022-08-26T08:42:16.116Z,93.20
2022-08-26T08:44:51.973Z,92.70
2022-08-26T08:47:26.902Z,92.60
2022-08-26T08:50:00.385Z,92.50
2022-08-26T08:52:31.991Z,92.10
2022-08-26T08:55:00.343Z,92.10
2022-08-26T08:57:39.641Z,91.80
2022-08-26T09:00:12.268Z,91.80
2022-08-26T09:02:53.549Z,91.50
2022-08-26T09:05:24.360Z,90.90
2022-08-26T09:07:58.502Z,90.40
2022-08-26T09:10:37.030Z,90.00
2022-08-26T09:13:09.357Z,88.60
2022-08-26T09:15:51.299Z,88.40
2022-08-26T09:18:32.769Z,87.30
2022-08-26T09:21:03.381Z,84.50
2022-08-26T09:23:34.107Z,84.30
2022-08-26T09:26:15.314Z,84.60
2022-08-26T09:28:48.084Z,84.90
2022-08-26T09:31:23.694Z,85.30
2022-08-26T09:34:11.387Z,83.50
2022-08-26T09:36:42.671Z,83.70
2022-08-26T09:39:27.403Z,80.70
2022-08-26T09:42:07.116Z,81.40
2022-08-26T09:44:36.914Z,79.10
2022-08-26T09:47:07.242Z,77.30
2022-08-26T09:49:39.255Z,77.60
2022-08-26T09:52:16.902Z,76.90
2022-08-26T09:54:46.160Z,77.80
2022-08-26T09:57:23.071Z,77.40
2022-08-26T09:59:51.225Z,76.70
2022-08-26T10:02:39.317Z,74.70
2022-08-26T10:05:15.929Z,74.90
2022-08-26T10:07:47.368Z,72.80
2022-08-26T10:10:21.373Z,71.20
2022-08-26T10:13:00.171Z,69.80
2022-08-26T10:15:29.746Z,70.90
2022-08-26T10:18:08.223Z,71.40
2022-08-26T10:20:50.386Z,72.00
2022-08-26T10:23:21.397Z,69.60
2022-08-26T10:25:58.951Z,70.60
2022-08-26T10:28:36.740Z,69.20
2022-08-26T10:31:09.780Z,67.60
2022-08-26T10:33:39.805Z,66.60
2022-08-26T10:36:39.272Z,66.60
2022-08-26T10:39:22.412Z,66.80
2022-08-26T10:41:56.400Z,67.50
2022-08-26T10:44:26.379Z,67.20
2022-08-26T10:46:59.061Z,66.60
2022-08-26T10:49:29.219Z,66.20
2022-08-26T10:52:04.772Z,65.30
2022-08-26T10:54:47.591Z,61.40
2022-08-26T10:57:24.692Z,61.90
2022-08-26T11:00:01.432Z,62.80
2022-08-26T11:02:47.454Z,62.50
2022-08-26T11:05:20.328Z,62.00
2022-08-26T11:07:52.722Z,61.30
2022-08-26T11:10:55.321Z,61.00
2022-08-26T11:14:04.765Z,61.00
2022-08-26T11:16:43.491Z,59.40
2022-08-26T11:19:58.864Z,58.10
2022-08-26T11:22:27.061Z,56.50
2022-08-26T11:25:06.589Z,56.10
2022-08-26T11:28:06.243Z,55.50
2022-08-26T11:30:56.802Z,50.20
2022-08-26T11:34:00.133Z,51.20
2022-08-26T11:36:45.551Z,49.20
2022-08-26T11:39:25.407Z,49.10
2022-08-26T11:41:59.818Z,48.90
2022-08-26T11:44:36.964Z,46.90
2022-08-26T11:47:11.562Z,47.20
2022-08-26T11:49:41.797Z,46.60
2022-08-26T11:52:13.617Z,46.40
2022-08-26T11:54:42.304Z,47.20
2022-08-26T11:57:14.642Z,45.60
2022-08-26T11:59:43.544Z,45.10
2022-08-26T12:02:21.120Z,48.50
2022-08-26T12:04:51.795Z,48.50
2022-08-26T12:07:25.170Z,47.40
2022-08-26T12:09:57.201Z,47.90
2022-08-26T12:12:34.710Z,48.00
2022-08-26T12:15:10.178Z,47.10
2022-08-26T12:17:39.960Z,47.10
2022-08-26T12:20:20.918Z,46.50
2022-08-26T12:22:49.104Z,46.20
2022-08-26T12:25:24.842Z,45.70
2022-08-26T12:27:54.993Z,46.90
2022-08-26T12:30:26.197Z,47.00
2022-08-26T12:33:14.157Z,47.20
2022-08-26T12:35:54.961Z,47.70
2022-08-26T12:38:25.992Z,48.20
2022-08-26T12:40:56.989Z,46.40
2022-08-26T12:43:44.314Z,46.30
2022-08-26T12:46:15.374Z,46.90
2022-08-26T12:48:45.804Z,45.40
2022-08-26T12:51:43.973Z,45.90
2022-08-26T12:54:16.007Z,45.00
2022-08-26T12:56:44.309Z,44.40
2022-08-26T12:59:25.188Z,44.10
2022-08-26T13:01:54.752Z,44.90
2022-08-26T13:04:38.540Z,44.70
2022-08-26T13:07:24.810Z,44.50
2022-08-26T13:09:54.566Z,43.90
2022-08-26T13:12:28.545Z,43.10
2022-08-26T13:15:01.013Z,43.80
2022-08-26T13:17:30.519Z,43.90
2022-08-26T13:20:04.044Z,45.60
2022-08-26T13:22:32.963Z,46.10
2022-08-26T13:25:01.084Z,46.30
2022-08-26T13:27:29.354Z,46.90
2022-08-26T13:30:01.726Z,46.20
2022-08-26T13:32:30.124Z,46.10
2022-08-26T13:34:58.839Z,46.50
2022-08-26T13:37:35.132Z,46.80
2022-08-26T13:40:05.993Z,46.70
2022-08-26T13:42:34.754Z,46.60
2022-08-26T13:45:06.537Z,46.70
2022-08-26T13:47:34.641Z,46.40
2022-08-26T13:50:02.897Z,46.50
2022-08-26T13:52:31.282Z,46.50
2022-08-26T13:55:00.190Z,46.00
2022-08-26T13:57:30.038Z,46.00
2022-08-26T13:59:59.476Z,45.90
2022-08-26T14:02:30.604Z,46.00
2022-08-26T14:04:58.651Z,46.60
2022-08-26T14:07:26.955Z,46.10
2022-08-26T14:09:55.182Z,46.30
2022-08-26T14:12:23.238Z,46.30
2022-08-26T14:14:51.310Z,46.50
2022-08-26T14:17:22.459Z,46.70
2022-08-26T14:19:52.512Z,47.50
2022-08-26T14:22:23.193Z,47.50
2022-08-26T14:24:51.587Z,47.80
2022-08-26T14:27:19.686Z,48.10
2022-08-26T14:29:47.934Z,48.60
2022-08-26T14:32:23.369Z,48.00
2022-08-26T14:34:52.896Z,48.60
2022-08-26T14:37:21.346Z,48.30
2022-08-26T14:39:49.817Z,47.70
2022-08-26T14:42:25.811Z,47.70
2022-08-26T14:45:02.511Z,46.70
2022-08-26T14:47:30.721Z,46.50
2022-08-26T14:50:00.316Z,46.70
2022-08-26T14:52:29.689Z,47.20
2022-08-26T14:54:56.784Z,48.00
2022-08-26T14:57:24.854Z,49.40
2022-08-26T14:59:53.165Z,49.40
2022-08-26T15:02:32.930Z,49.80
2022-08-26T15:05:04.055Z,49.80
2022-08-26T15:07:32.630Z,49.10
2022-08-26T15:10:00.771Z,50.00
2022-08-26T15:12:28.891Z,49.90
2022-08-26T15:14:56.917Z,49.90
2022-08-26T15:17:26.193Z,49.90
2022-08-26T15:19:54.457Z,49.40
2022-08-26T15:22:24.288Z,49.30
2022-08-26T15:24:58.706Z,49.30
2022-08-26T15:27:26.884Z,50.20
2022-08-26T15:29:55.156Z,49.30
2022-08-26T15:32:23.259Z,50.10
2022-08-26T15:34:53.039Z,50.50
2022-08-26T15:37:21.085Z,51.50
2022-08-26T15:39:52.106Z,51.80
2022-08-26T15:42:21.524Z,52.70
2022-08-26T15:44:49.922Z,52.40
2022-08-26T15:47:18.418Z,53.20
2022-08-26T15:49:46.586Z,53.50
2022-08-26T15:52:16.745Z,53.80
2022-08-26T15:54:44.848Z,54.00
2022-08-26T15:57:16.449Z,54.10
2022-08-26T15:59:47.229Z,54.40
2022-08-26T16:02:15.419Z,54.30
2022-08-26T16:04:43.636Z,54.40
2022-08-26T16:07:12.668Z,54.50
2022-08-26T16:09:40.854Z,54.00
2022-08-26T16:12:09.341Z,54.10
2022-08-26T16:14:38.998Z,55.40
2022-08-26T16:17:07.241Z,55.80
2022-08-26T16:19:35.273Z,55.80
2022-08-26T16:22:03.526Z,57.20
2022-08-26T16:24:31.577Z,57.50
2022-08-26T16:26:59.703Z,57.60
2022-08-26T16:29:27.910Z,59.40
2022-08-26T16:31:57.331Z,59.70
2022-08-26T16:34:25.583Z,58.30
2022-08-26T16:36:53.906Z,55.80
2022-08-26T16:39:22.037Z,53.40
2022-08-26T16:41:50.297Z,54.10
2022-08-26T16:44:19.068Z,53.10
2022-08-26T16:46:47.212Z,54.10
2022-08-26T16:49:16.795Z,53.50
2022-08-26T16:51:46.988Z,53.70
2022-08-26T16:54:15.085Z,54.00
2022-08-26T16:56:43.260Z,54.10
2022-08-26T16:59:12.204Z,53.60
2022-08-26T17:01:40.391Z,53.40
2022-08-26T17:04:08.629Z,54.10
2022-08-26T17:06:38.234Z,54.60
2022-08-26T17:09:06.567Z,54.90
2022-08-26T17:11:34.773Z,55.90
2022-08-26T17:14:02.940Z,56.10
2022-08-26T17:16:31.058Z,56.00
2022-08-26T17:19:00.089Z,56.20
2022-08-26T17:21:29.517Z,56.90
2022-08-26T17:23:59.331Z,57.50
2022-08-26T17:26:27.539Z,58.00
2022-08-26T17:28:55.748Z,57.20
2022-08-26T17:31:24.761Z,57.30
2022-08-26T17:33:54.345Z,57.60
2022-08-26T17:36:27.672Z,57.40
2022-08-26T17:38:58.879Z,57.90
2022-08-26T17:41:27.623Z,57.90
2022-08-26T17:43:56.091Z,58.10
2022-08-26T17:46:25.262Z,58.00
2022-08-26T17:48:53.647Z,58.10
2022-08-26T17:51:23.478Z,58.20
2022-08-26T17:53:52.799Z,58.90
2022-08-26T17:56:25.529Z,59.20
2022-08-26T17:58:55.048Z,59.70
2022-08-26T18:01:27.175Z,59.80
2022-08-26T18:04:00.230Z,59.90
2022-08-26T18:06:30.923Z,60.40
2022-08-26T18:08:59.660Z,60.50
2022-08-26T18:11:29.912Z,61.20
2022-08-26T18:14:01.446Z,61.70
2022-08-26T18:16:34.077Z,62.10
2022-08-26T18:19:02.189Z,60.90
2022-08-26T18:21:30.293Z,60.10
2022-08-26T18:23:58.464Z,59.60
2022-08-26T18:26:29.336Z,59.50
2022-08-26T18:28:57.894Z,59.40
2022-08-26T18:31:26.305Z,59.70
2022-08-26T18:33:54.721Z,60.10
2022-08-26T18:36:25.254Z,60.30
2022-08-26T18:38:54.585Z,60.60
2022-08-26T18:41:25.351Z,60.90
2022-08-26T18:43:55.584Z,61.10
2022-08-26T18:46:26.111Z,61.60
2022-08-26T18:48:55.877Z,61.50
2022-08-26T18:51:26.383Z,61.60
2022-08-26T18:53:54.790Z,61.90
2022-08-26T18:56:23.030Z,62.30
2022-08-26T18:58:51.197Z,62.50
2022-08-26T19:01:25.518Z,62.70
2022-08-26T19:03:56.005Z,63.00
2022-08-26T19:06:25.668Z,63.30
2022-08-26T19:08:58.182Z,63.60
2022-08-26T19:11:32.154Z,64.20
2022-08-26T19:14:03.397Z,64.00
2022-08-26T19:16:33.022Z,64.10
2022-08-26T19:19:02.052Z,64.60
2022-08-26T19:21:30.902Z,65.10
2022-08-26T19:24:00.235Z,65.50
2022-08-26T19:26:29.368Z,66.10
2022-08-26T19:28:57.872Z,65.90
2022-08-26T19:31:26.752Z,66.20
2022-08-26T19:33:58.119Z,66.50
2022-08-26T19:36:27.309Z,66.80
2022-08-26T19:38:56.533Z,67.30
2022-08-26T19:41:37.425Z,68.00
2022-08-26T19:44:08.259Z,67.90
2022-08-26T19:49:12.082Z,69.80
2022-08-26T19:51:40.185Z,70.80
2022-08-26T19:54:08.304Z,71.40
2022-08-26T19:56:36.597Z,71.40
2022-08-26T19:59:04.862Z,71.30
2022-08-26T20:01:33.118Z,72.10
2022-08-26T20:04:01.446Z,72.00
2022-08-26T20:06:30.953Z,71.20
2022-08-26T20:08:59.581Z,71.20
2022-08-26T20:11:27.898Z,70.40
2022-08-26T20:13:55.977Z,70.00
2022-08-26T20:16:24.314Z,68.70
2022-08-26T20:19:18.185Z,69.00
2022-08-26T20:21:47.859Z,69.30
2022-08-26T20:24:18.437Z,70.10
2022-08-26T20:26:47.132Z,70.30
2022-08-26T20:29:17.368Z,70.60
2022-08-26T20:31:46.593Z,71.90
2022-08-26T20:34:16.390Z,73.40
2022-08-26T20:36:49.112Z,73.80
2022-08-26T20:39:20.952Z,74.30
2022-08-26T20:41:49.588Z,74.60
2022-08-26T20:44:18.167Z,75.00
2022-08-26T20:46:46.498Z,75.40
2022-08-26T20:49:14.899Z,76.10
2022-08-26T20:51:43.746Z,76.40
2022-08-26T20:54:13.673Z,77.00
2022-08-26T20:56:42.072Z,78.20
2022-08-26T20:59:10.533Z,79.70
2022-08-26T21:01:42.313Z,81.40
2022-08-26T21:04:17.171Z,82.50
2022-08-26T21:06:49.426Z,84.10
2022-08-26T21:09:24.289Z,85.40
2022-08-26T21:11:53.443Z,86.10
2022-08-26T21:14:23.224Z,87.10
2022-08-26T21:16:54.575Z,87.70
2022-08-26T21:19:23.276Z,88.10
2022-08-26T21:21:51.405Z,89.50
2022-08-26T21:24:19.642Z,90.10
2022-08-26T21:26:49.304Z,90.40
2022-08-26T21:29:17.512Z,91.00
2022-08-26T21:31:46.770Z,91.50
2022-08-26T21:34:18.231Z,92.30
2022-08-26T21:36:46.675Z,92.90
2022-08-26T21:39:17.572Z,93.10
2022-08-26T21:41:47.236Z,93.30
2022-08-26T21:44:18.700Z,93.70
2022-08-26T21:46:47.791Z,94.10
2022-08-26T21:49:17.404Z,94.40
2022-08-26T21:51:47.825Z,94.80
2022-08-26T21:54:15.968Z,94.80
2022-08-26T21:56:47.264Z,94.80
2022-08-26T21:59:19.927Z,94.90
2022-08-26T22:01:48.523Z,94.80
2022-08-26T22:04:18.168Z,94.40
2022-08-26T22:06:48.784Z,94.20
2022-08-26T22:09:19.403Z,94.80
2022-08-26T22:11:47.859Z,94.90
2022-08-26T22:14:19.204Z,95.00
2022-08-26T22:16:50.312Z,95.80
2022-08-26T22:19:20.070Z,96.00
2022-08-26T22:21:50.119Z,95.60
2022-08-26T22:24:18.423Z,95.30
2022-08-26T22:26:46.946Z,94.90
2022-08-26T22:29:16.614Z,94.50
2022-08-26T22:31:44.759Z,94.90
2022-08-26T22:34:15.747Z,95.20
2022-08-26T22:36:46.224Z,95.20
2022-08-26T22:39:15.157Z,94.90
2022-08-26T22:41:48.554Z,94.80
2022-08-26T22:44:20.433Z,95.10
2022-08-26T22:46:49.946Z,94.90
2022-08-26T22:49:19.603Z,94.80
2022-08-26T22:51:47.823Z,95.40
2022-08-26T22:54:16.746Z,95.70
2022-08-26T22:56:46.037Z,95.80
2022-08-26T22:59:16.201Z,95.40
2022-08-26T23:01:46.855Z,95.30
2022-08-26T23:04:15.613Z,95.70
2022-08-26T23:06:47.655Z,96.00
2022-08-26T23:09:17.928Z,96.50
2022-08-26T23:11:47.421Z,96.90
2022-08-26T23:14:16.423Z,97.50
2022-08-26T23:16:47.405Z,97.70
2022-08-26T23:19:17.991Z,97.70
2022-08-26T23:21:46.221Z,97.20
2022-08-26T23:24:14.610Z,96.60
2022-08-26T23:26:44.029Z,96.40
2022-08-26T23:29:15.645Z,96.90
2022-08-26T23:31:45.565Z,97.20
2022-08-26T23:34:31.652Z,97.60
2022-08-26T23:37:00.983Z,97.50
2022-08-26T23:39:29.478Z,97.00
2022-08-26T23:41:58.163Z,96.60
2022-08-26T23:44:26.746Z,96.20
2022-08-26T23:46:56.492Z,96.10
2022-08-26T23:49:25.317Z,95.90
2022-08-26T23:52:11.796Z,96.30
2022-08-26T23:54:42.550Z,96.60
2022-08-26T23:57:11.182Z,96.40
2022-08-26T23:59:40.305Z,96.30
